KLM101 VNKT-VNLK
Flight info
| Callsign | KLM101 |
|---|---|
| Flight time | 0h 28m |
| Altitude | 150 |
| Route | KIMTI VNPL |
| Aircraft | TBM9/L-VGD/C |
Departure
| Time | 2026-04-16 02:39 |
|---|---|
| Airport | Tribhuvan International Airport (VNKT) |
Arrival
| Time | 2026-04-16 03:08 |
|---|---|
| Airport | Tenzing-Hillary Airport (VNLK) |
| Time | Latitude | Longitude | Altitude | Speed | Heading |
|---|---|---|---|---|---|
| 2026-04-16 02:33 | 27.69824 | 85.35751 | 4366 ft | 0 kts | 291° |
| 2026-04-16 02:34 | 27.69805 | 85.35721 | 4365 ft | 10 kts | 204° |
| 2026-04-16 02:34 | 27.69771 | 85.35748 | 4358 ft | 3 kts | 118° |
| 2026-04-16 02:34 | 27.69742 | 85.35802 | 4356 ft | 13 kts | 131° |
| 2026-04-16 02:35 | 27.69661 | 85.35798 | 4356 ft | 16 kts | 203° |
| 2026-04-16 02:35 | 27.69530 | 85.35736 | 4360 ft | 25 kts | 202° |
| 2026-04-16 02:35 | 27.69344 | 85.35651 | 4346 ft | 33 kts | 201° |
| 2026-04-16 02:35 | 27.69156 | 85.35565 | 4343 ft | 21 kts | 202° |
| 2026-04-16 02:36 | 27.69128 | 85.35553 | 4347 ft | 1 kts | 200° |
| 2026-04-16 02:36 | 27.69090 | 85.35554 | 4343 ft | 11 kts | 152° |
| 2026-04-16 02:36 | 27.69060 | 85.35636 | 4346 ft | 7 kts | 53° |
| 2026-04-16 02:36 | 27.69088 | 85.35654 | 4347 ft | 0 kts | 22° |
| 2026-04-16 02:38 | 27.69128 | 85.35672 | 4348 ft | 26 kts | 21° |
| 2026-04-16 02:38 | 27.69320 | 85.35758 | 4353 ft | 62 kts | 22° |
| 2026-04-16 02:39 | 27.69870 | 85.36005 | 4367 ft | 104 kts | 19° |
| 2026-04-16 02:39 | 27.70818 | 85.36390 | 4800 ft | 109 kts | 29° |
| 2026-04-16 02:39 | 27.71194 | 85.36788 | 4977 ft | 114 kts | 63° |
| 2026-04-16 02:39 | 27.71242 | 85.37735 | 5040 ft | 138 kts | 99° |
| 2026-04-16 02:40 | 27.71084 | 85.38889 | 5049 ft | 155 kts | 100° |
| 2026-04-16 02:40 | 27.70906 | 85.40090 | 5241 ft | 159 kts | 99° |
| 2026-04-16 02:40 | 27.70717 | 85.41353 | 5478 ft | 166 kts | 100° |
| 2026-04-16 02:40 | 27.70516 | 85.42653 | 5618 ft | 169 kts | 100° |
| 2026-04-16 02:41 | 27.70305 | 85.43959 | 5856 ft | 168 kts | 100° |
| 2026-04-16 02:41 | 27.70091 | 85.45254 | 6086 ft | 168 kts | 100° |
| 2026-04-16 02:41 | 27.69874 | 85.46561 | 6397 ft | 171 kts | 100° |
| 2026-04-16 02:41 | 27.69657 | 85.47888 | 6608 ft | 173 kts | 100° |
| 2026-04-16 02:42 | 27.69437 | 85.49232 | 6819 ft | 176 kts | 100° |
| 2026-04-16 02:42 | 27.69211 | 85.50599 | 7029 ft | 178 kts | 100° |
| 2026-04-16 02:42 | 27.68927 | 85.51957 | 7239 ft | 180 kts | 106° |
| 2026-04-16 02:42 | 27.68578 | 85.53310 | 7451 ft | 180 kts | 106° |
| 2026-04-16 02:43 | 27.68221 | 85.54668 | 7661 ft | 180 kts | 106° |
| 2026-04-16 02:43 | 27.67863 | 85.56026 | 7872 ft | 180 kts | 107° |
| 2026-04-16 02:43 | 27.67508 | 85.57381 | 8090 ft | 181 kts | 106° |
| 2026-04-16 02:43 | 27.67147 | 85.58751 | 8314 ft | 182 kts | 106° |
| 2026-04-16 02:44 | 27.66786 | 85.60125 | 8530 ft | 183 kts | 106° |
| 2026-04-16 02:44 | 27.66417 | 85.61516 | 8743 ft | 186 kts | 106° |
| 2026-04-16 02:44 | 27.66052 | 85.62898 | 8959 ft | 187 kts | 106° |
| 2026-04-16 02:44 | 27.65678 | 85.64316 | 9182 ft | 189 kts | 106° |
| 2026-04-16 02:45 | 27.65300 | 85.65740 | 9398 ft | 190 kts | 106° |
| 2026-04-16 02:45 | 27.64919 | 85.67167 | 9629 ft | 190 kts | 107° |
| 2026-04-16 02:45 | 27.64541 | 85.68599 | 9833 ft | 191 kts | 106° |
| 2026-04-16 02:45 | 27.64157 | 85.70043 | 10055 ft | 193 kts | 107° |
| 2026-04-16 02:46 | 27.63778 | 85.71501 | 10261 ft | 195 kts | 106° |
| 2026-04-16 02:46 | 27.63389 | 85.72976 | 10468 ft | 197 kts | 106° |
| 2026-04-16 02:46 | 27.62997 | 85.74465 | 10693 ft | 199 kts | 106° |
| 2026-04-16 02:46 | 27.62601 | 85.75967 | 10900 ft | 201 kts | 106° |
| 2026-04-16 02:47 | 27.62203 | 85.77481 | 11112 ft | 201 kts | 106° |
| 2026-04-16 02:47 | 27.61814 | 85.78977 | 11322 ft | 202 kts | 106° |
| 2026-04-16 02:47 | 27.61418 | 85.80500 | 11531 ft | 202 kts | 107° |
| 2026-04-16 02:47 | 27.61027 | 85.82021 | 11743 ft | 202 kts | 106° |
| 2026-04-16 02:48 | 27.60633 | 85.83538 | 11973 ft | 202 kts | 106° |
| 2026-04-16 02:48 | 27.60236 | 85.85069 | 12189 ft | 204 kts | 106° |
| 2026-04-16 02:48 | 27.59831 | 85.86610 | 12414 ft | 207 kts | 107° |
| 2026-04-16 02:48 | 27.59421 | 85.88176 | 12648 ft | 210 kts | 106° |
| 2026-04-16 02:49 | 27.59013 | 85.89754 | 12865 ft | 212 kts | 106° |
| 2026-04-16 02:49 | 27.58604 | 85.91346 | 13100 ft | 212 kts | 106° |
| 2026-04-16 02:49 | 27.58196 | 85.92957 | 13335 ft | 215 kts | 105° |
| 2026-04-16 02:49 | 27.57781 | 85.94574 | 13567 ft | 216 kts | 106° |
| 2026-04-16 02:50 | 27.57373 | 85.96203 | 13791 ft | 216 kts | 107° |
| 2026-04-16 02:50 | 27.56957 | 85.97844 | 14008 ft | 220 kts | 106° |
| 2026-04-16 02:50 | 27.56549 | 85.99488 | 14208 ft | 215 kts | 105° |
| 2026-04-16 02:50 | 27.56143 | 86.01115 | 14402 ft | 215 kts | 106° |
| 2026-04-16 02:51 | 27.55736 | 86.02737 | 14607 ft | 214 kts | 106° |
| 2026-04-16 02:51 | 27.55333 | 86.04358 | 14817 ft | 215 kts | 106° |
| 2026-04-16 02:51 | 27.54934 | 86.05947 | 15009 ft | 210 kts | 106° |
| 2026-04-16 02:51 | 27.54526 | 86.07556 | 15088 ft | 218 kts | 106° |
| 2026-04-16 02:52 | 27.54100 | 86.09242 | 15099 ft | 229 kts | 106° |
| 2026-04-16 02:52 | 27.53655 | 86.10992 | 15073 ft | 235 kts | 106° |
| 2026-04-16 02:52 | 27.53198 | 86.12784 | 15062 ft | 238 kts | 107° |
| 2026-04-16 02:52 | 27.52756 | 86.14559 | 15046 ft | 231 kts | 106° |
| 2026-04-16 02:53 | 27.52331 | 86.16301 | 15063 ft | 233 kts | 106° |
| 2026-04-16 02:53 | 27.51882 | 86.18076 | 15064 ft | 237 kts | 106° |
| 2026-04-16 02:53 | 27.51427 | 86.19846 | 15090 ft | 234 kts | 106° |
| 2026-04-16 02:53 | 27.50974 | 86.21585 | 15079 ft | 234 kts | 107° |
| 2026-04-16 02:54 | 27.50519 | 86.23340 | 15082 ft | 232 kts | 106° |
| 2026-04-16 02:54 | 27.50068 | 86.25081 | 15082 ft | 230 kts | 106° |
| 2026-04-16 02:54 | 27.49623 | 86.26802 | 15063 ft | 226 kts | 106° |
| 2026-04-16 02:54 | 27.49188 | 86.28467 | 15069 ft | 220 kts | 106° |
| 2026-04-16 02:55 | 27.48746 | 86.30139 | 15067 ft | 224 kts | 107° |
| 2026-04-16 02:55 | 27.48306 | 86.31830 | 15087 ft | 227 kts | 106° |
| 2026-04-16 02:55 | 27.47865 | 86.33550 | 15082 ft | 230 kts | 106° |
| 2026-04-16 02:55 | 27.47424 | 86.35270 | 15123 ft | 232 kts | 106° |
| 2026-04-16 02:56 | 27.46969 | 86.37020 | 15100 ft | 232 kts | 106° |
| 2026-04-16 02:56 | 27.46521 | 86.38752 | 15113 ft | 230 kts | 106° |
| 2026-04-16 02:56 | 27.46073 | 86.40486 | 15115 ft | 230 kts | 106° |
| 2026-04-16 02:56 | 27.45625 | 86.42242 | 14990 ft | 235 kts | 105° |
| 2026-04-16 02:57 | 27.45203 | 86.44035 | 14836 ft | 237 kts | 102° |
| 2026-04-16 02:57 | 27.44866 | 86.45786 | 14661 ft | 227 kts | 101° |
| 2026-04-16 02:57 | 27.44551 | 86.47516 | 14497 ft | 222 kts | 101° |
| 2026-04-16 02:57 | 27.44247 | 86.49190 | 14348 ft | 216 kts | 101° |
| 2026-04-16 02:58 | 27.43937 | 86.50843 | 14183 ft | 215 kts | 101° |
| 2026-04-16 02:58 | 27.43632 | 86.52483 | 14020 ft | 213 kts | 101° |
| 2026-04-16 02:58 | 27.43325 | 86.54120 | 13837 ft | 213 kts | 101° |
| 2026-04-16 02:58 | 27.43015 | 86.55762 | 13591 ft | 219 kts | 101° |
| 2026-04-16 02:59 | 27.42703 | 86.57445 | 13424 ft | 221 kts | 100° |
| 2026-04-16 02:59 | 27.42367 | 86.59126 | 13247 ft | 220 kts | 101° |
| 2026-04-16 02:59 | 27.42023 | 86.60796 | 13060 ft | 216 kts | 101° |
| 2026-04-16 02:59 | 27.41698 | 86.62407 | 12885 ft | 211 kts | 101° |
| 2026-04-16 03:00 | 27.41367 | 86.64045 | 12720 ft | 217 kts | 101° |
| 2026-04-16 03:00 | 27.41032 | 86.65681 | 12552 ft | 216 kts | 101° |
| 2026-04-16 03:00 | 27.40694 | 86.67312 | 12384 ft | 212 kts | 101° |
| 2026-04-16 03:00 | 27.40370 | 86.68965 | 12228 ft | 219 kts | 101° |
| 2026-04-16 03:01 | 27.40206 | 86.70647 | 12049 ft | 214 kts | 77° |
| 2026-04-16 03:01 | 27.40828 | 86.72085 | 11874 ft | 199 kts | 37° |
| 2026-04-16 03:01 | 27.41983 | 86.72740 | 11715 ft | 179 kts | 359° |
| 2026-04-16 03:01 | 27.43206 | 86.72802 | 11533 ft | 174 kts | 352° |
| 2026-04-16 03:02 | 27.44423 | 86.72750 | 11420 ft | 177 kts | 349° |
| 2026-04-16 03:02 | 27.45639 | 86.72449 | 11252 ft | 180 kts | 343° |
| 2026-04-16 03:02 | 27.46841 | 86.72119 | 11088 ft | 180 kts | 344° |
| 2026-04-16 03:02 | 27.48059 | 86.71790 | 10961 ft | 178 kts | 345° |
| 2026-04-16 03:03 | 27.49250 | 86.71464 | 10966 ft | 174 kts | 344° |
| 2026-04-16 03:03 | 27.50423 | 86.71140 | 10951 ft | 173 kts | 344° |
| 2026-04-16 03:03 | 27.51591 | 86.70818 | 10949 ft | 172 kts | 343° |
| 2026-04-16 03:03 | 27.52757 | 86.70504 | 10950 ft | 171 kts | 343° |
| 2026-04-16 03:04 | 27.53909 | 86.70184 | 10947 ft | 169 kts | 343° |
| 2026-04-16 03:04 | 27.55041 | 86.69874 | 10886 ft | 172 kts | 344° |
| 2026-04-16 03:04 | 27.56229 | 86.69544 | 10760 ft | 178 kts | 345° |
| 2026-04-16 03:04 | 27.57458 | 86.69262 | 10583 ft | 183 kts | 352° |
| 2026-04-16 03:05 | 27.58731 | 86.69164 | 10405 ft | 185 kts | 355° |
| 2026-04-16 03:05 | 27.60002 | 86.69096 | 10314 ft | 178 kts | 355° |
| 2026-04-16 03:05 | 27.61186 | 86.69043 | 10297 ft | 163 kts | 356° |
| 2026-04-16 03:05 | 27.62263 | 86.69037 | 10279 ft | 145 kts | 359° |
| 2026-04-16 03:06 | 27.63235 | 86.69068 | 10314 ft | 140 kts | 0° |
| 2026-04-16 03:06 | 27.64203 | 86.69221 | 10314 ft | 140 kts | 6° |
| 2026-04-16 03:06 | 27.66079 | 86.69856 | 10247 ft | 146 kts | 19° |
| 2026-04-16 03:07 | 27.66944 | 86.70369 | 10095 ft | 139 kts | 30° |
| 2026-04-16 03:07 | 27.67678 | 86.71024 | 9576 ft | 130 kts | 45° |
| 2026-04-16 03:07 | 27.68155 | 86.71840 | 9265 ft | 120 kts | 64° |
| 2026-04-16 03:07 | 27.68493 | 86.72596 | 9219 ft | 98 kts | 57° |
| 2026-04-16 03:08 | 27.68755 | 86.73094 | 9430 ft | 26 kts | 58° |
| 2026-04-16 03:08 | 27.68781 | 86.73155 | 9438 ft | 1 kts | 107° |
| 2026-04-16 03:08 | 27.68770 | 86.73166 | 9439 ft | 0 kts | 153° |
| 2026-04-16 03:08 | 27.68762 | 86.73171 | 9440 ft | 3 kts | 154° |
| 2026-04-16 03:09 | 27.68741 | 86.73156 | 9440 ft | 2 kts | 286° |
| 2026-04-16 03:09 | 27.68747 | 86.73149 | 9440 ft | 0 kts | 341° |
| 2026-04-16 03:09 | 27.68755 | 86.73151 | 9440 ft | 0 kts | 21° |